sensor_id;sensor_type;location;lat;lon;timestamp;temperature;humidity
12460;DHT22;6295;49.452;8.466;2024-02-26T09:14:39;8.30;99.90
12460;DHT22;6295;49.452;8.466;2024-02-26T09:18:43;8.30;99.90
12460;DHT22;6295;49.452;8.466;2024-02-26T09:22:45;8.40;99.90
12460;DHT22;6295;49.452;8.466;2024-02-26T09:26:47;8.40;99.90
12460;DHT22;6295;49.452;8.466;2024-02-26T09:30:51;8.50;99.90
12460;DHT22;6295;49.452;8.466;2024-02-26T09:34:53;8.50;99.90
12460;DHT22;6295;49.452;8.466;2024-02-26T09:38:55;8.60;99.90
12460;DHT22;6295;49.452;8.466;2024-02-26T09:43:00;8.60;99.90
12460;DHT22;6295;49.452;8.466;2024-02-26T09:47:05;8.70;99.90
12460;DHT22;6295;49.452;8.466;2024-02-26T09:51:11;8.80;99.90
12460;DHT22;6295;49.452;8.466;2024-02-26T09:55:14;8.90;99.90
12460;DHT22;6295;49.452;8.466;2024-02-26T09:59:20;8.90;99.90
12460;DHT22;6295;49.452;8.466;2024-02-26T10:03:30;9.00;99.90
12460;DHT22;6295;49.452;8.466;2024-02-26T10:07:35;9.00;99.90
12460;DHT22;6295;49.452;8.466;2024-02-26T10:11:38;9.10;99.90
12460;DHT22;6295;49.452;8.466;2024-02-26T10:15:43;9.20;99.90
12460;DHT22;6295;49.452;8.466;2024-02-26T10:19:47;9.20;99.90
12460;DHT22;6295;49.452;8.466;2024-02-26T10:23:51;9.30;99.90
12460;DHT22;6295;49.452;8.466;2024-02-26T10:27:54;9.40;99.90
12460;DHT22;6295;49.452;8.466;2024-02-26T10:31:57;9.50;99.90
12460;DHT22;6295;49.452;8.466;2024-02-26T10:36:00;9.70;99.90
12460;DHT22;6295;49.452;8.466;2024-02-26T10:40:03;9.80;99.90
12460;DHT22;6295;49.452;8.466;2024-02-26T10:44:05;9.90;99.90
12460;DHT22;6295;49.452;8.466;2024-02-26T10:48:09;10.00;99.90
12460;DHT22;6295;49.452;8.466;2024-02-26T10:52:14;10.10;99.90
12460;DHT22;6295;49.452;8.466;2024-02-26T10:56:18;10.10;99.90
12460;DHT22;6295;49.452;8.466;2024-02-26T11:00:21;10.30;99.90
12460;DHT22;6295;49.452;8.466;2024-02-26T11:04:24;10.30;99.90
12460;DHT22;6295;49.452;8.466;2024-02-26T11:08:30;10.40;99.90
12460;DHT22;6295;49.452;8.466;2024-02-26T11:12:36;10.50;99.90
12460;DHT22;6295;49.452;8.466;2024-02-26T11:16:40;10.60;99.90
12460;DHT22;6295;49.452;8.466;2024-02-26T11:20:44;10.60;99.90
12460;DHT22;6295;49.452;8.466;2024-02-26T11:24:50;10.70;99.90
12460;DHT22;6295;49.452;8.466;2024-02-26T11:28:53;10.80;99.90
12460;DHT22;6295;49.452;8.466;2024-02-26T11:32:56;10.80;99.90
12460;DHT22;6295;49.452;8.466;2024-02-26T11:37:09;10.80;99.90
12460;DHT22;6295;49.452;8.466;2024-02-26T11:41:13;10.90;99.90
12460;DHT22;6295;49.452;8.466;2024-02-26T11:45:52;10.90;99.90
12460;DHT22;6295;49.452;8.466;2024-02-26T11:49:55;10.90;99.90
12460;DHT22;6295;49.452;8.466;2024-02-26T11:53:57;10.90;99.90
12460;DHT22;6295;49.452;8.466;2024-02-26T11:58:00;11.00;99.90
12460;DHT22;6295;49.452;8.466;2024-02-26T12:02:05;11.00;99.90
12460;DHT22;6295;49.452;8.466;2024-02-26T12:06:09;11.00;99.90
12460;DHT22;6295;49.452;8.466;2024-02-26T12:10:24;11.10;99.90
12460;DHT22;6295;49.452;8.466;2024-02-26T12:14:28;11.20;99.90
12460;DHT22;6295;49.452;8.466;2024-02-26T12:22:33;11.50;99.90
12460;DHT22;6295;49.452;8.466;2024-02-26T12:30:41;11.70;99.90
12460;DHT22;6295;49.452;8.466;2024-02-26T12:38:46;11.80;99.90
12460;DHT22;6295;49.452;8.466;2024-02-26T12:42:48;11.90;99.90
12460;DHT22;6295;49.452;8.466;2024-02-26T12:47:00;12.10;99.90
12460;DHT22;6295;49.452;8.466;2024-02-26T12:51:04;12.10;99.90
12460;DHT22;6295;49.452;8.466;2024-02-26T12:55:06;12.20;99.90
12460;DHT22;6295;49.452;8.466;2024-02-26T12:59:09;12.20;99.90
12460;DHT22;6295;49.452;8.466;2024-02-26T13:03:13;12.40;99.90
12460;DHT22;6295;49.452;8.466;2024-02-26T13:07:15;12.50;99.90
12460;DHT22;6295;49.452;8.466;2024-02-26T13:11:18;12.50;99.90
12460;DHT22;6295;49.452;8.466;2024-02-26T13:15:21;12.50;99.90
12460;DHT22;6295;49.452;8.466;2024-02-26T13:19:25;12.40;99.90
12460;DHT22;6295;49.452;8.466;2024-02-26T13:27:30;12.40;99.90
12460;DHT22;6295;49.452;8.466;2024-02-26T13:31:39;12.50;99.90
12460;DHT22;6295;49.452;8.466;2024-02-26T13:35:43;12.60;99.90
12460;DHT22;6295;49.452;8.466;2024-02-26T13:39:45;12.70;99.90
12460;DHT22;6295;49.452;8.466;2024-02-26T13:43:47;12.70;99.90
12460;DHT22;6295;49.452;8.466;2024-02-26T13:47:52;12.80;99.90
12460;DHT22;6295;49.452;8.466;2024-02-26T13:51:56;12.80;99.90
12460;DHT22;6295;49.452;8.466;2024-02-26T13:55:58;12.80;99.90
12460;DHT22;6295;49.452;8.466;2024-02-26T14:00:02;12.90;99.90
12460;DHT22;6295;49.452;8.466;2024-02-26T14:04:06;12.90;99.90
12460;DHT22;6295;49.452;8.466;2024-02-26T14:08:15;13.00;99.90
12460;DHT22;6295;49.452;8.466;2024-02-26T14:12:19;13.00;99.90
12460;DHT22;6295;49.452;8.466;2024-02-26T14:16:21;13.00;99.90
12460;DHT22;6295;49.452;8.466;2024-02-26T14:20:24;13.00;99.90
12460;DHT22;6295;49.452;8.466;2024-02-26T14:24:30;13.10;99.90
12460;DHT22;6295;49.452;8.466;2024-02-26T14:28:32;13.10;99.90
12460;DHT22;6295;49.452;8.466;2024-02-26T14:32:38;13.00;99.90
12460;DHT22;6295;49.452;8.466;2024-02-26T14:36:41;13.10;99.90
12460;DHT22;6295;49.452;8.466;2024-02-26T14:40:45;13.10;99.90
12460;DHT22;6295;49.452;8.466;2024-02-26T14:44:47;13.20;99.90
12460;DHT22;6295;49.452;8.466;2024-02-26T14:48:51;13.30;99.90
12460;DHT22;6295;49.452;8.466;2024-02-26T14:52:53;13.30;99.90
12460;DHT22;6295;49.452;8.466;2024-02-26T14:56:58;13.40;99.90
12460;DHT22;6295;49.452;8.466;2024-02-26T15:01:00;13.40;99.90
12460;DHT22;6295;49.452;8.466;2024-02-26T15:05:03;13.40;99.90
12460;DHT22;6295;49.452;8.466;2024-02-26T15:09:09;13.40;99.90
12460;DHT22;6295;49.452;8.466;2024-02-26T15:13:14;13.30;99.90
12460;DHT22;6295;49.452;8.466;2024-02-26T15:17:18;13.20;99.90
12460;DHT22;6295;49.452;8.466;2024-02-26T15:21:21;13.20;99.90
12460;DHT22;6295;49.452;8.466;2024-02-26T15:25:23;13.10;99.90
12460;DHT22;6295;49.452;8.466;2024-02-26T15:29:26;13.00;99.90
12460;DHT22;6295;49.452;8.466;2024-02-26T15:33:29;12.90;99.90
12460;DHT22;6295;49.452;8.466;2024-02-26T15:37:31;12.90;99.90
12460;DHT22;6295;49.452;8.466;2024-02-26T15:41:36;12.90;99.90
12460;DHT22;6295;49.452;8.466;2024-02-26T15:45:41;12.90;99.90
12460;DHT22;6295;49.452;8.466;2024-02-26T15:53:47;12.80;99.90
12460;DHT22;6295;49.452;8.466;2024-02-26T15:57:50;12.80;99.90
12460;DHT22;6295;49.452;8.466;2024-02-26T16:01:54;12.80;99.90
12460;DHT22;6295;49.452;8.466;2024-02-26T16:05:56;12.80;99.90
12460;DHT22;6295;49.452;8.466;2024-02-26T16:09:59;12.80;99.90
12460;DHT22;6295;49.452;8.466;2024-02-26T16:14:22;12.80;99.90
12460;DHT22;6295;49.452;8.466;2024-02-26T16:18:30;12.70;99.90
12460;DHT22;6295;49.452;8.466;2024-02-26T16:26:37;12.60;99.90
12460;DHT22;6295;49.452;8.466;2024-02-26T16:30:39;12.50;99.90
12460;DHT22;6295;49.452;8.466;2024-02-26T16:34:42;12.50;99.90
12460;DHT22;6295;49.452;8.466;2024-02-26T16:38:44;12.50;99.90
12460;DHT22;6295;49.452;8.466;2024-02-26T16:42:46;12.40;99.90
12460;DHT22;6295;49.452;8.466;2024-02-26T16:46:51;12.40;99.90
12460;DHT22;6295;49.452;8.466;2024-02-26T16:55:03;12.20;99.90
